Gurli — SLEG — position and weather

sailwx.info

Track history (hours):
 
Tides and Currents Weather Stations Pressure Air Temp Water Temp Dewpoint Dewpoint Depression Visibility Wind Speed Wind Dir Waves Ship Positions

Gurli

Last reported at 2017-Aug-18 19:52 UTC. Time now 2017-Aug-18 20:09 UTC.
Position N 59°20' E 018°05'.

Length 21 m.

Type: Passenger vessel. MMSI: 265687640.

Date/timePositionNaut miles runAvg speedWind from/ knotsBaromVisibWave heightAir tempDewpointWater temp
2017-Aug-18 19:52N 59°20' E 018°05'0 0.0
2017-Aug-18 19:28N 59°20' E 018°05'0 0.2
2017-Aug-18 19:00N 59°20' E 018°05'2 3.8
2017-Aug-18 18:30N 59°19' E 018°08'1 1.7
2017-Aug-18 18:00N 59°19' E 018°07'0 0.7
2017-Aug-18 17:29N 59°19' E 018°06'1 2.9
2017-Aug-18 17:00N 59°19' E 018°09'2 4.3
2017-Aug-18 16:28N 59°20' E 018°05'2 4.3
2017-Aug-18 16:00N 59°19' E 018°08'2 3.2
2017-Aug-18 15:29N 59°21' E 018°08'2 3.5
2017-Aug-18 15:00N 59°19' E 018°08'2 3.8
2017-Aug-18 14:28N 59°20' E 018°05'0 0.0
2017-Aug-18 13:27N 59°20' E 018°05'3 5.1
2017-Aug-18 12:57N 59°19' E 018°09'1 3.2
2017-Aug-18 12:30N 59°21' E 018°09'2 3.6
2017-Aug-18 11:59N 59°19' E 018°07'1 2.5
2017-Aug-18 11:26N 59°20' E 018°05'0 1.0
2017-Aug-18 11:00N 59°20' E 018°06'0 0.4
2017-Aug-18 10:30N 59°19' E 018°06'0 0.4
2017-Aug-18 10:00N 59°19' E 018°06'2 3.7
2017-Aug-18 09:30N 59°20' E 018°09'0 0.1
2017-Aug-18 09:00N 59°20' E 018°09'2 3.9
2017-Aug-18 08:29N 59°19' E 018°06'1 1.4
2017-Aug-18 07:56N 59°20' E 018°05'1 3.2
2017-Aug-18 07:29N 59°19' E 018°07'2 4.3
2017-Aug-18 07:00N 59°21' E 018°09'1 2.8
2017-Aug-18 06:30N 59°19' E 018°09'2 4.2
2017-Aug-18 05:59N 59°20' E 018°05'1 2.7
2017-Aug-18 05:29N 59°19' E 018°08'2 3.4
2017-Aug-18 05:00N 59°21' E 018°08'2 3.5
2017-Aug-18 04:30N 59°19' E 018°09'2 4.5
2017-Aug-18 03:59N 59°20' E 018°05'0 0.0
2017-Aug-18 02:59N 59°20' E 018°05'0 0.0
2017-Aug-18 02:17N 59°20' E 018°05'0 0.0
2017-Aug-18 01:53N 59°20' E 018°05'0 0.0
2017-Aug-18 01:29N 59°20' E 018°05'0 0.0
2017-Aug-18 00:59N 59°20' E 018°05'0 0.0
2017-Aug-18 00:29N 59°20' E 018°05'0 0.0
2017-Aug-17 23:59N 59°20' E 018°05'0 0.0
2017-Aug-17 23:29N 59°20' E 018°05'0 0.0
2017-Aug-17 22:53N 59°20' E 018°05'0 0.0
2017-Aug-17 22:29N 59°20' E 018°05'0 0.0
2017-Aug-17 21:59N 59°20' E 018°05'0 0.0
2017-Aug-17 21:29N 59°20' E 018°05'0 0.0
2017-Aug-17 20:53N 59°20' E 018°05'0 0.0
2017-Aug-17 20:29N 59°20' E 018°05'0 0.0
2017-Aug-17 19:53N 59°20' E 018°05'0 0.0
2017-Aug-17 19:23N 59°20' E 018°05'0 0.3
2017-Aug-17 19:00N 59°20' E 018°05'2 3.7
2017-Aug-17 18:30N 59°19' E 018°08'1 2.2
2017-Aug-17 17:59N 59°19' E 018°06'0 0.8
2017-Aug-17 17:28N 59°19' E 018°07'1 1.8
2017-Aug-17 17:00N 59°19' E 018°08'2 3.7
2017-Aug-17 16:27N 59°20' E 018°05'2 4.2
2017-Aug-17 15:58N 59°19' E 018°08'2 3.4
2017-Aug-17 15:30N 59°21' E 018°09'2 3.0
2017-Aug-17 14:58N 59°19' E 018°08'2 4.2
2017-Aug-17 14:29N 59°20' E 018°05'2 4.0
2017-Aug-17 14:00N 59°19' E 018°08'2 3.7
2017-Aug-17 13:29N 59°20' E 018°05'3 5.3
2017-Aug-17 13:00N 59°19' E 018°10'2 3.1
2017-Aug-17 12:31N 59°21' E 018°09'2 3.7
2017-Aug-17 12:00N 59°19' E 018°07'1 3.0
2017-Aug-17 11:30N 59°20' E 018°05'1 1.3
2017-Aug-17 10:59N 59°19' E 018°06'0 0.0
2017-Aug-17 10:30N 59°19' E 018°06'1 1.4
2017-Aug-17 09:59N 59°19' E 018°07'2 3.6
2017-Aug-17 09:29N 59°20' E 018°09'0 0.7
2017-Aug-17 09:00N 59°20' E 018°09'2 4.0
2017-Aug-17 08:30N 59°19' E 018°06'1 1.2
2017-Aug-17 07:54N 59°20' E 018°05'2 3.8
2017-Aug-17 07:30N 59°19' E 018°07'2 3.8
2017-Aug-17 07:00N 59°21' E 018°09'1 3.0
2017-Aug-17 06:30N 59°19' E 018°10'2 4.4
2017-Aug-17 06:00N 59°20' E 018°05'2 3.0
2017-Aug-17 05:30N 59°19' E 018°08'2 3.2
2017-Aug-17 05:00N 59°21' E 018°09'2 3.2
2017-Aug-17 04:30N 59°19' E 018°08'2 3.5
2017-Aug-17 03:58N 59°20' E 018°05'0 0.0
2017-Aug-17 03:28N 59°20' E 018°05'0 0.0
2017-Aug-17 02:58N 59°20' E 018°05'0 0.0
2017-Aug-17 02:28N 59°20' E 018°05'0 0.0
2017-Aug-17 01:58N 59°20' E 018°05'0 0.0
2017-Aug-17 01:28N 59°20' E 018°05'0 0.0
2017-Aug-17 00:58N 59°20' E 018°05'0 0.0
2017-Aug-17 00:22N 59°20' E 018°05'0 0.0
2017-Aug-16 23:58N 59°20' E 018°05'0 0.0
2017-Aug-16 23:28N 59°20' E 018°05'0 0.0
2017-Aug-16 22:52N 59°20' E 018°05'0 0.0
2017-Aug-16 22:28N 59°20' E 018°05'0 0.0
2017-Aug-16 21:58N 59°20' E 018°05'0 0.0
2017-Aug-16 21:28N 59°20' E 018°05'0 0.0
2017-Aug-16 20:52N 59°20' E 018°05'0 0.0
2017-Aug-16 20:28N 59°20' E 018°05'0 0.0
2017-Aug-16 19:58N 59°20' E 018°05'0 0.0
2017-Aug-16 19:28N 59°20' E 018°05'0 0.4
2017-Aug-16 18:55N 59°20' E 018°05'2 4.3
2017-Aug-16 18:31N 59°19' E 018°08'0 0.9
2017-Aug-16 18:01N 59°19' E 018°07'0 0.7
2017-Aug-16 17:29N 59°19' E 018°06'2 3.1
2017-Aug-16 17:00N 59°19' E 018°09'2 4.3
2017-Aug-16 16:27N 59°20' E 018°05'2 3.7
2017-Aug-16 15:59N 59°19' E 018°07'2 3.7
2017-Aug-16 15:30N 59°21' E 018°08'2 3.1
2017-Aug-16 15:00N 59°19' E 018°09'2 4.1
2017-Aug-16 14:28N 59°20' E 018°05'2 3.9
2017-Aug-16 14:00N 59°19' E 018°08'2 3.5
2017-Aug-16 13:28N 59°20' E 018°05'2 5.0
2017-Aug-16 12:59N 59°19' E 018°09'1 2.7
2017-Aug-16 12:29N 59°21' E 018°09'2 3.6
2017-Aug-16 12:00N 59°19' E 018°07'2 3.0
2017-Aug-16 11:30N 59°20' E 018°05'0 0.9
2017-Aug-16 10:59N 59°19' E 018°06'0 0.6
2017-Aug-16 10:30N 59°19' E 018°06'0 0.3
2017-Aug-16 10:00N 59°19' E 018°06'2 3.7
2017-Aug-16 09:30N 59°20' E 018°09'0 0.2
2017-Aug-16 09:01N 59°20' E 018°09'2 4.0
2017-Aug-16 08:31N 59°19' E 018°06'1 1.0
2017-Aug-16 08:00N 59°20' E 018°05'1 2.4
2017-Aug-16 07:30N 59°19' E 018°07'2 3.9
2017-Aug-16 06:58N 59°21' E 018°09'1 3.0
2017-Aug-16 06:29N 59°19' E 018°09'2 4.3
2017-Aug-16 06:00N 59°20' E 018°05'1 2.6
2017-Aug-16 05:29N 59°19' E 018°08'2 3.4
2017-Aug-16 05:00N 59°21' E 018°08'2 3.6
2017-Aug-16 04:30N 59°19' E 018°09'2 4.4
2017-Aug-16 03:59N 59°20' E 018°05'0 0.0
2017-Aug-16 03:29N 59°20' E 018°05'0 0.0
2017-Aug-16 02:59N 59°20' E 018°05'0 0.0
2017-Aug-16 02:11N 59°20' E 018°05'0 0.0
2017-Aug-16 01:53N 59°20' E 018°05'0 0.0
2017-Aug-16 01:29N 59°20' E 018°05'0 0.0
2017-Aug-16 00:59N 59°20' E 018°05'0 0.0
2017-Aug-16 00:29N 59°20' E 018°05'0 0.0
2017-Aug-15 23:59N 59°20' E 018°05'0 0.0
2017-Aug-15 23:23N 59°20' E 018°05'0 0.0
2017-Aug-15 22:59N 59°20' E 018°05'0 0.0
2017-Aug-15 22:29N 59°20' E 018°05'0 0.0
2017-Aug-15 21:59N 59°20' E 018°05'0 0.0
2017-Aug-15 21:29N 59°20' E 018°05'0 0.0
2017-Aug-15 20:59N 59°20' E 018°05'0 0.0
2017-Aug-15 20:29N 59°20' E 018°05'0 0.0
2017-Aug-15 19:59N 59°20' E 018°05'0 0.0
2017-Aug-15 19:29N 59°20' E 018°05'0 0.4
2017-Aug-15 18:59N 59°20' E 018°05'2 4.1
2017-Aug-15 18:30N 59°19' E 018°08'1 1.6
2017-Aug-15 18:00N 59°19' E 018°07'0 0.3
2017-Aug-15 17:28N 59°19' E 018°06'1 2.5
2017-Aug-15 17:00N 59°19' E 018°09'2 4.3
2017-Aug-15 16:30N 59°20' E 018°05'2 3.6
2017-Aug-15 16:00N 59°19' E 018°08'2 3.2
2017-Aug-15 15:28N 59°21' E 018°08'2 3.5
2017-Aug-15 14:59N 59°19' E 018°08'2 4.0
2017-Aug-15 14:29N 59°20' E 018°05'2 4.2
2017-Aug-15 14:00N 59°19' E 018°08'2 4.0
2017-Aug-15 13:30N 59°20' E 018°05'3 5.1
2017-Aug-15 13:00N 59°19' E 018°09'1 1.5
2017-Aug-15 12:26N 59°20' E 018°09'1 3.3
2017-Aug-15 12:00N 59°19' E 018°07'1 2.2
2017-Aug-15 11:23N 59°20' E 018°05'0 1.0
2017-Aug-15 11:00N 59°20' E 018°05'0 0.5
2017-Aug-15 10:30N 59°19' E 018°06'0 0.7
2017-Aug-15 10:00N 59°19' E 018°06'2 3.5
2017-Aug-15 09:30N 59°20' E 018°09'0 0.2
2017-Aug-15 09:00N 59°20' E 018°10'2 4.1
2017-Aug-15 08:30N 59°19' E 018°06'1 1.3
2017-Aug-15 07:54N 59°20' E 018°05'1 3.7
2017-Aug-15 07:30N 59°19' E 018°07'2 4.0
2017-Aug-15 07:00N 59°20' E 018°09'1 2.4
2017-Aug-15 06:29N 59°19' E 018°09'2 4.1
2017-Aug-15 06:00N 59°20' E 018°05'1 2.3
2017-Aug-15 05:30N 59°19' E 018°08'2 3.3
2017-Aug-15 05:00N 59°21' E 018°08'2 3.4
2017-Aug-15 04:30N 59°19' E 018°09'2 3.7
2017-Aug-15 03:54N 59°20' E 018°05'0 0.0
2017-Aug-15 03:31N 59°20' E 018°05'0 0.0
2017-Aug-15 02:54N 59°20' E 018°05'0 0.0
2017-Aug-15 02:24N 59°20' E 018°05'0 0.0
2017-Aug-15 02:01N 59°20' E 018°05'0 0.0
2017-Aug-15 01:30N 59°20' E 018°05'0 0.0
2017-Aug-15 01:01N 59°20' E 018°05'0 0.0
2017-Aug-15 00:31N 59°20' E 018°05'0 0.0
2017-Aug-15 00:00N 59°20' E 018°05'0 0.0
2017-Aug-14 23:31N 59°20' E 018°05'0 0.0
2017-Aug-14 23:01N 59°20' E 018°05'0 0.0
2017-Aug-14 22:25N 59°20' E 018°05'0 0.0
2017-Aug-14 22:00N 59°20' E 018°05'0 0.0
2017-Aug-14 21:24N 59°20' E 018°05'0 0.0
2017-Aug-14 21:01N 59°20' E 018°05'0 0.0
2017-Aug-14 20:31N 59°20' E 018°05'0 0.0
2017-Aug-14 20:01N 59°20' E 018°05'0 0.0
2017-Aug-14 19:24N 59°20' E 018°05'0 0.3
2017-Aug-14 19:00N 59°20' E 018°05'2 4.1
2017-Aug-14 18:30N 59°19' E 018°09'1 2.6
2017-Aug-14 17:59N 59°19' E 018°06'0 0.0
2017-Aug-14 17:29N 59°19' E 018°06'1 2.4
2017-Aug-14 17:00N 59°19' E 018°08'2 4.0
2017-Aug-14 16:29N 59°20' E 018°05'2 3.7
2017-Aug-14 16:00N 59°19' E 018°07'2 3.5
2017-Aug-14 15:29N 59°21' E 018°08'2 3.3
2017-Aug-14 14:59N 59°19' E 018°08'2 3.7
2017-Aug-14 14:29N 59°20' E 018°05'2 3.7
2017-Aug-14 13:59N 59°19' E 018°08'2 3.9
2017-Aug-14 13:30N 59°20' E 018°05'3 5.1
2017-Aug-14 13:00N 59°19' E 018°09'1 2.8
2017-Aug-14 12:30N 59°21' E 018°09'2 3.7
2017-Aug-14 12:00N 59°19' E 018°07'1 2.7
2017-Aug-14 11:30N 59°20' E 018°05'0 0.5
2017-Aug-14 11:00N 59°20' E 018°05'0 0.5
2017-Aug-14 10:29N 59°19' E 018°06'0 0.7
2017-Aug-14 10:01N 59°19' E 018°06'2 3.7
2017-Aug-14 09:31N 59°20' E 018°09'0 0.2
2017-Aug-14 09:00N 59°20' E 018°09'2 3.8
2017-Aug-14 08:29N 59°19' E 018°06'1 1.4
2017-Aug-14 07:59N 59°20' E 018°05'1 3.0
2017-Aug-14 07:30N 59°19' E 018°07'2 3.9
2017-Aug-14 07:00N 59°20' E 018°09'1 2.3
2017-Aug-14 06:30N 59°19' E 018°09'2 3.8
2017-Aug-14 06:00N 59°20' E 018°05'1 2.6
2017-Aug-14 05:30N 59°19' E 018°08'2 3.2
2017-Aug-14 05:00N 59°21' E 018°08'2 3.3
2017-Aug-14 04:30N 59°19' E 018°08'2 3.3
2017-Aug-14 03:55N 59°20' E 018°05'0 0.0
2017-Aug-14 03:19N 59°20' E 018°05'0 0.0
2017-Aug-14 02:55N 59°20' E 018°05'0 0.0
2017-Aug-14 02:25N 59°20' E 018°05'0 0.0
2017-Aug-14 01:55N 59°20' E 018°05'0 0.0
2017-Aug-14 01:19N 59°20' E 018°05'0 0.0
2017-Aug-14 00:49N 59°20' E 018°05'0 0.0
2017-Aug-14 00:19N 59°20' E 018°05'0 0.0
2017-Aug-13 23:55N 59°20' E 018°05'0 0.0
2017-Aug-13 23:25N 59°20' E 018°05'0 0.0
2017-Aug-13 22:55N 59°20' E 018°05'0 0.0
2017-Aug-13 22:25N 59°20' E 018°05'0 0.0
2017-Aug-13 21:55N 59°20' E 018°05'0 0.0
2017-Aug-13 21:19N 59°20' E 018°05'0 0.0
2017-Aug-13 20:55N 59°20' E 018°05'0 0.0
2017-Aug-13 20:25N 59°20' E 018°05'0 0.0
2017-Aug-13 19:55N 59°20' E 018°05'0 0.0
2017-Aug-13 19:25N 59°20' E 018°05'0 0.0
2017-Aug-13 18:55N 59°20' E 018°05'0 0.0
2017-Aug-13 18:25N 59°20' E 018°05'0 0.0
2017-Aug-13 17:55N 59°20' E 018°05'0 0.0
2017-Aug-13 17:25N 59°20' E 018°05'0 0.0
2017-Aug-13 16:55N 59°20' E 018°05'0 0.0
2017-Aug-13 16:25N 59°20' E 018°05'1 2.0
2017-Aug-13 16:00N 59°19' E 018°06'2 3.8
2017-Aug-13 15:26N 59°21' E 018°09'2 3.7
2017-Aug-13 15:00N 59°19' E 018°08'2 3.5
2017-Aug-13 14:26N 59°20' E 018°05'2 3.7
2017-Aug-13 14:00N 59°19' E 018°07'2 3.1
2017-Aug-13 13:27N 59°21' E 018°09'2 3.4
2017-Aug-13 12:59N 59°19' E 018°08'2 4.1
2017-Aug-13 12:29N 59°20' E 018°05'2 4.0
2017-Aug-13 11:59N 59°19' E 018°08'2 4.2
2017-Aug-13 11:30N 59°20' E 018°05'0 0.0
2017-Aug-13 10:55N 59°20' E 018°05'1 3.0
2017-Aug-13 10:30N 59°19' E 018°07'2 4.0
2017-Aug-13 10:00N 59°21' E 018°09'2 3.6
2017-Aug-13 09:30N 59°19' E 018°07'1 2.9
2017-Aug-13 09:00N 59°20' E 018°05'2 4.3
2017-Aug-13 08:30N 59°19' E 018°09'2 3.5
2017-Aug-13 08:00N 59°19' E 018°06'1 1.1
2017-Aug-13 07:27N 59°20' E 018°05'0 0.0
2017-Aug-13 06:57N 59°20' E 018°05'0 0.0
2017-Aug-13 06:27N 59°20' E 018°05'0 0.0
2017-Aug-13 05:45N 59°20' E 018°05'0 0.0
2017-Aug-13 05:27N 59°20' E 018°05'0 0.0
2017-Aug-13 04:57N 59°20' E 018°05'0 0.0
2017-Aug-13 04:27N 59°20' E 018°05'0 0.0
2017-Aug-13 03:57N 59°20' E 018°05'0 0.0
2017-Aug-13 03:21N 59°20' E 018°05'0 0.0
2017-Aug-13 02:57N 59°20' E 018°05'0 0.0
2017-Aug-13 02:27N 59°20' E 018°05'0 0.0
2017-Aug-13 01:57N 59°20' E 018°05'0 0.0
2017-Aug-13 01:27N 59°20' E 018°05'0 0.0
2017-Aug-13 00:57N 59°20' E 018°05'0 0.0
2017-Aug-13 00:27N 59°20' E 018°05'0 0.0
2017-Aug-12 23:57N 59°20' E 018°05'0 0.0
2017-Aug-12 23:27N 59°20' E 018°05'0 0.0
2017-Aug-12 22:57N 59°20' E 018°05'0 0.0
2017-Aug-12 22:21N 59°20' E 018°05'0 0.0
2017-Aug-12 21:57N 59°20' E 018°05'0 0.0
2017-Aug-12 21:27N 59°20' E 018°05'0 0.0
2017-Aug-12 20:57N 59°20' E 018°05'0 0.0
2017-Aug-12 20:27N 59°20' E 018°05'0 0.0
2017-Aug-12 19:57N 59°20' E 018°05'0 0.0
2017-Aug-12 19:21N 59°20' E 018°05'0 0.0
2017-Aug-12 18:57N 59°20' E 018°05'0 0.0
2017-Aug-12 18:21N 59°20' E 018°05'0 0.0
2017-Aug-12 17:57N 59°20' E 018°05'0 0.0
2017-Aug-12 17:27N 59°20' E 018°05'0 0.0
2017-Aug-12 16:57N 59°20' E 018°05'0 0.0
2017-Aug-12 16:27N 59°20' E 018°05'1 2.5
2017-Aug-12 16:00N 59°19' E 018°07'2 3.6
2017-Aug-12 15:27N 59°21' E 018°09'2 3.4
2017-Aug-12 14:59N 59°19' E 018°08'2 3.5
2017-Aug-12 14:26N 59°20' E 018°05'2 3.5
2017-Aug-12 14:00N 59°19' E 018°07'2 3.6
2017-Aug-12 13:30N 59°21' E 018°09'2 3.0
2017-Aug-12 12:59N 59°19' E 018°08'2 4.2
2017-Aug-12 12:30N 59°20' E 018°05'2 3.9
2017-Aug-12 11:58N 59°19' E 018°08'2 3.8
2017-Aug-12 11:27N 59°20' E 018°05'0 0.0
2017-Aug-12 11:00N 59°20' E 018°05'1 2.3
2017-Aug-12 10:29N 59°19' E 018°06'2 4.0
2017-Aug-12 10:00N 59°21' E 018°09'2 3.6
2017-Aug-12 09:30N 59°19' E 018°07'1 2.5
2017-Aug-12 08:58N 59°20' E 018°05'2 4.6
2017-Aug-12 08:30N 59°19' E 018°09'2 3.6
2017-Aug-12 07:59N 59°19' E 018°06'1 0.9
2017-Aug-12 07:25N 59°20' E 018°05'0 0.0
2017-Aug-12 06:37N 59°20' E 018°05'0 0.0
2017-Aug-12 06:07N 59°20' E 018°05'0 0.0
2017-Aug-12 05:49N 59°20' E 018°05'0 0.0
2017-Aug-12 05:25N 59°20' E 018°05'0 0.0
2017-Aug-12 04:49N 59°20' E 018°05'0 0.0
2017-Aug-12 04:19N 59°20' E 018°05'0 0.0
2017-Aug-12 03:55N 59°20' E 018°05'0 0.0
2017-Aug-12 03:25N 59°20' E 018°05'0 0.0
2017-Aug-12 02:55N 59°20' E 018°05'0 0.0
2017-Aug-12 02:25N 59°20' E 018°05'0 0.0
2017-Aug-12 01:55N 59°20' E 018°05'0 0.0
2017-Aug-12 01:19N 59°20' E 018°05'0 0.0
2017-Aug-12 00:49N 59°20' E 018°05'0 0.0
2017-Aug-12 00:25N 59°20' E 018°05'0 0.0
2017-Aug-11 23:49N 59°20' E 018°05'0 0.0
2017-Aug-11 23:19N 59°20' E 018°05'0 0.0
2017-Aug-11 22:55N 59°20' E 018°05'0 0.0
2017-Aug-11 22:19N 59°20' E 018°05'0 0.0
2017-Aug-11 21:49N 59°20' E 018°05'0 0.0
2017-Aug-11 21:25N 59°20' E 018°05'0 0.0
2017-Aug-11 20:55N 59°20' E 018°05'0 0.0
2017-Aug-11 20:19N 59°20' E 018°05'0 0.0
2017-Aug-11 19:49N 59°20' E 018°05'0 0.0
2017-Aug-11 19:19N 59°20' E 018°05'0 0.5
2017-Aug-11 18:59N 59°20' E 018°05'2 4.8
2017-Aug-11 18:30N 59°19' E 018°09'2 3.6
2017-Aug-11 18:00N 59°19' E 018°06'0 0.4
2017-Aug-11 17:30N 59°19' E 018°06'1 2.2
2017-Aug-11 17:00N 59°19' E 018°08'2 4.1
2017-Aug-11 16:29N 59°20' E 018°05'2 4.4
2017-Aug-11 15:58N 59°19' E 018°09'1 3.0
2017-Aug-11 15:29N 59°21' E 018°09'2 3.7
2017-Aug-11 14:59N 59°19' E 018°07'0 0.1
2017-Aug-11 14:00N 59°19' E 018°07'1 1.7
2017-Aug-11 13:30N 59°19' E 018°06'2 4.1
2017-Aug-11 13:00N 59°19' E 018°10'1 2.3
2017-Aug-11 12:31N 59°20' E 018°09'2 3.2
2017-Aug-11 12:00N 59°19' E 018°07'1 2.7
2017-Aug-11 11:29N 59°20' E 018°05'0 0.8
2017-Aug-11 11:00N 59°20' E 018°05'0 0.3
2017-Aug-11 10:29N 59°19' E 018°06'1 1.2
2017-Aug-11 10:00N 59°19' E 018°06'2 3.7
2017-Aug-11 09:29N 59°20' E 018°09'1 1.4
2017-Aug-11 08:59N 59°20' E 018°09'2 4.1
2017-Aug-11 08:30N 59°19' E 018°06'1 1.2
2017-Aug-11 07:56N 59°20' E 018°05'1 3.2
2017-Aug-11 07:29N 59°19' E 018°07'2 4.2
2017-Aug-11 06:59N 59°21' E 018°09'1 2.7
2017-Aug-11 06:29N 59°19' E 018°09'2 4.2
2017-Aug-11 06:00N 59°20' E 018°05'2 3.1
2017-Aug-11 05:29N 59°19' E 018°08'2 3.6
2017-Aug-11 05:00N 59°21' E 018°08'2 3.4
2017-Aug-11 04:30N 59°19' E 018°09'2 3.9
2017-Aug-11 03:57N 59°20' E 018°05'0 0.0
2017-Aug-11 03:27N 59°20' E 018°05'0 0.0
2017-Aug-11 02:57N 59°20' E 018°05'0 0.0
2017-Aug-11 02:28N 59°20' E 018°05'0 0.0
2017-Aug-11 01:57N 59°20' E 018°05'0 0.0
2017-Aug-11 01:27N 59°20' E 018°05'0 0.0
2017-Aug-11 00:57N 59°20' E 018°05'0 0.0
2017-Aug-11 00:27N 59°20' E 018°05'0 0.0
2017-Aug-10 23:57N 59°20' E 018°05'0 0.0
2017-Aug-10 23:27N 59°20' E 018°05'0 0.0
2017-Aug-10 22:58N 59°20' E 018°05'0 0.0
2017-Aug-10 22:27N 59°20' E 018°05'0 0.0
2017-Aug-10 21:58N 59°20' E 018°05'0 0.0
2017-Aug-10 21:27N 59°20' E 018°05'0 0.0
2017-Aug-10 20:57N 59°20' E 018°05'0 0.0
2017-Aug-10 20:28N 59°20' E 018°05'0 0.0
2017-Aug-10 19:58N 59°20' E 018°05'0 0.0
2017-Aug-10 19:28N 59°20' E 018°05'0 0.1
2017-Aug-10 19:00N 59°20' E 018°05'2 3.7
2017-Aug-10 18:31N 59°19' E 018°08'1 2.4
2017-Aug-10 18:01N 59°19' E 018°06'0 0.8
2017-Aug-10 17:30N 59°19' E 018°07'1 1.6
2017-Aug-10 17:00N 59°19' E 018°08'2 3.9
2017-Aug-10 16:29N 59°20' E 018°05'2 3.5
2017-Aug-10 16:00N 59°19' E 018°07'2 3.5
2017-Aug-10 15:30N 59°21' E 018°08'2 3.3
2017-Aug-10 15:00N 59°19' E 018°08'2 3.9
2017-Aug-10 14:29N 59°20' E 018°05'2 3.4
2017-Aug-10 13:58N 59°19' E 018°07'2 3.8
2017-Aug-10 13:30N 59°20' E 018°05'3 5.0
2017-Aug-10 13:00N 59°19' E 018°09'1 2.8
2017-Aug-10 12:30N 59°21' E 018°09'2 3.5
2017-Aug-10 12:00N 59°19' E 018°07'2 3.3
2017-Aug-10 11:30N 59°20' E 018°05'1 1.2
2017-Aug-10 11:00N 59°20' E 018°05'0 0.4
2017-Aug-10 10:30N 59°19' E 018°06'0 0.9
2017-Aug-10 10:00N 59°19' E 018°06'2 3.6
2017-Aug-10 09:30N 59°20' E 018°09'0 0.2
2017-Aug-10 09:00N 59°20' E 018°09'2 3.8
2017-Aug-10 08:29N 59°19' E 018°06'1 1.4
2017-Aug-10 07:58N 59°20' E 018°05'1 3.0
2017-Aug-10 07:30N 59°19' E 018°07'2 4.0
2017-Aug-10 07:00N 59°21' E 018°09'1 2.7
2017-Aug-10 06:31N 59°19' E 018°09'2 4.2
2017-Aug-10 05:59N 59°20' E 018°05'2 3.5
2017-Aug-10 05:29N 59°19' E 018°08'2 3.2
2017-Aug-10 04:58N 59°21' E 018°08'2 3.4
2017-Aug-10 04:29N 59°19' E 018°08'2 4.2
2017-Aug-10 04:00N 59°20' E 018°05'0 0.3
2017-Aug-10 03:27N 59°20' E 018°05'0 0.0
2017-Aug-10 02:57N 59°20' E 018°05'0 0.0
2017-Aug-10 02:27N 59°20' E 018°05'0 0.0
2017-Aug-10 01:57N 59°20' E 018°05'0 0.0
2017-Aug-10 01:27N 59°20' E 018°05'0 0.0
2017-Aug-10 00:57N 59°20' E 018°05'0 0.0
2017-Aug-10 00:27N 59°20' E 018°05'0 0.0
2017-Aug-09 23:57N 59°20' E 018°05'0 0.0
2017-Aug-09 23:27N 59°20' E 018°05'0 0.0
2017-Aug-09 22:57N 59°20' E 018°05'0 0.0
2017-Aug-09 22:27N 59°20' E 018°05'0 0.0
2017-Aug-09 21:57N 59°20' E 018°05'0 0.0
2017-Aug-09 21:27N 59°20' E 018°05'0 0.0
2017-Aug-09 20:57N 59°20' E 018°05'0 0.0
2017-Aug-09 20:27N 59°20' E 018°05'0 0.0
2017-Aug-09 19:45N 59°20' E 018°05'0 0.0
2017-Aug-09 19:21N 59°20' E 018°05'0 0.1
2017-Aug-09 19:00N 59°20' E 018°05'2 3.6
2017-Aug-09 18:30N 59°19' E 018°08'1 1.9
2017-Aug-09 17:58N 59°19' E 018°06'0 0.5
2017-Aug-09 17:30N 59°19' E 018°06'1 2.3
2017-Aug-09 16:59N 59°19' E 018°08'2 4.1
2017-Aug-09 16:29N 59°20' E 018°05'2 3.6
2017-Aug-09 16:00N 59°19' E 018°07'2 3.5
2017-Aug-09 15:30N 59°21' E 018°09'2 3.2
2017-Aug-09 15:00N 59°19' E 018°08'2 3.8
2017-Aug-09 14:29N 59°20' E 018°05'2 3.9
2017-Aug-09 14:00N 59°19' E 018°08'2 3.4
2017-Aug-09 13:29N 59°20' E 018°05'2 4.8
2017-Aug-09 12:59N 59°19' E 018°10'1 2.7
2017-Aug-09 12:30N 59°20' E 018°09'2 3.6
2017-Aug-09 12:00N 59°19' E 018°07'1 2.0
2017-Aug-09 11:20N 59°20' E 018°05'0 1.3
2017-Aug-09 10:59N 59°19' E 018°06'0 0.1
2017-Aug-09 10:30N 59°19' E 018°06'1 1.4
2017-Aug-09 09:59N 59°19' E 018°07'2 3.5
2017-Aug-09 09:30N 59°20' E 018°09'0 0.1
2017-Aug-09 09:00N 59°20' E 018°09'2 3.8
2017-Aug-09 08:29N 59°19' E 018°06'1 1.3
2017-Aug-09 07:57N 59°20' E 018°05'1 3.1
2017-Aug-09 07:30N 59°19' E 018°07'2 4.2
2017-Aug-09 07:00N 59°21' E 018°09'1 2.8
2017-Aug-09 06:30N 59°19' E 018°09'2 4.6
2017-Aug-09 06:00N 59°20' E 018°05'1 2.8
2017-Aug-09 05:30N 59°19' E 018°08'2 3.3
2017-Aug-09 05:00N 59°21' E 018°08'2 3.5
2017-Aug-09 04:30N 59°19' E 018°09'2 4.2
2017-Aug-09 03:56N 59°20' E 018°05'0 0.0
2017-Aug-09 03:26N 59°20' E 018°05'0 0.0
2017-Aug-09 02:57N 59°20' E 018°05'0 0.0
2017-Aug-09 02:26N 59°20' E 018°05'0 0.0
2017-Aug-09 01:57N 59°20' E 018°05'0 0.0
2017-Aug-09 01:29N 59°20' E 018°05'0 0.0
2017-Aug-09 00:58N 59°20' E 018°05'0 0.0
2017-Aug-09 00:22N 59°20' E 018°05'0 0.0
2017-Aug-08 23:59N 59°20' E 018°05'0 0.0
2017-Aug-08 23:29N 59°20' E 018°05'0 0.0
2017-Aug-08 22:59N 59°20' E 018°05'0 0.0
2017-Aug-08 22:28N 59°20' E 018°05'0 0.0
2017-Aug-08 21:58N 59°20' E 018°05'0 0.0
2017-Aug-08 21:28N 59°20' E 018°05'0 0.0
2017-Aug-08 20:58N 59°20' E 018°05'0 0.0
2017-Aug-08 20:28N 59°20' E 018°05'0 0.0
2017-Aug-08 19:59N 59°20' E 018°05'  
Track history (hours):
 
Tides and Currents Weather Stations Pressure Air Temp Water Temp Dewpoint Dewpoint Depression Visibility Wind Speed Wind Dir Waves Ship Positions

Gurli

Last reported at 2017-Aug-18 19:52 UTC. Time now 2017-Aug-18 20:09 UTC.
Position N 59°20' E 018°05'.

Length 21 m.

Type: Passenger vessel. MMSI: 265687640.

Date/timePositionNaut miles runAvg speedWind from/ knotsBaromVisibWave heightAir tempDewpointWater temp
2017-Aug-18 19:52N 59°20' E 018°05'0 0.0
2017-Aug-18 19:28N 59°20' E 018°05'0 0.2
2017-Aug-18 19:00N 59°20' E 018°05'2 3.8
2017-Aug-18 18:30N 59°19' E 018°08'1 1.7
2017-Aug-18 18:00N 59°19' E 018°07'0 0.7
2017-Aug-18 17:29N 59°19' E 018°06'1 2.9
2017-Aug-18 17:00N 59°19' E 018°09'2 4.3
2017-Aug-18 16:28N 59°20' E 018°05'2 4.3
2017-Aug-18 16:00N 59°19' E 018°08'2 3.2
2017-Aug-18 15:29N 59°21' E 018°08'2 3.5
2017-Aug-18 15:00N 59°19' E 018°08'2 3.8
2017-Aug-18 14:28N 59°20' E 018°05'0 0.0
2017-Aug-18 13:27N 59°20' E 018°05'3 5.1
2017-Aug-18 12:57N 59°19' E 018°09'1 3.2
2017-Aug-18 12:30N 59°21' E 018°09'2 3.6
2017-Aug-18 11:59N 59°19' E 018°07'1 2.5
2017-Aug-18 11:26N 59°20' E 018°05'0 1.0
2017-Aug-18 11:00N 59°20' E 018°06'0 0.4
2017-Aug-18 10:30N 59°19' E 018°06'0 0.4
2017-Aug-18 10:00N 59°19' E 018°06'2 3.7
2017-Aug-18 09:30N 59°20' E 018°09'0 0.1
2017-Aug-18 09:00N 59°20' E 018°09'2 3.9
2017-Aug-18 08:29N 59°19' E 018°06'1 1.4
2017-Aug-18 07:56N 59°20' E 018°05'1 3.2
2017-Aug-18 07:29N 59°19' E 018°07'2 4.3
2017-Aug-18 07:00N 59°21' E 018°09'1 2.8
2017-Aug-18 06:30N 59°19' E 018°09'2 4.2
2017-Aug-18 05:59N 59°20' E 018°05'1 2.7
2017-Aug-18 05:29N 59°19' E 018°08'2 3.4
2017-Aug-18 05:00N 59°21' E 018°08'2 3.5
2017-Aug-18 04:30N 59°19' E 018°09'2 4.5
2017-Aug-18 03:59N 59°20' E 018°05'0 0.0
2017-Aug-18 02:59N 59°20' E 018°05'0 0.0
2017-Aug-18 02:17N 59°20' E 018°05'0 0.0
2017-Aug-18 01:53N 59°20' E 018°05'0 0.0
2017-Aug-18 01:29N 59°20' E 018°05'0 0.0
2017-Aug-18 00:59N 59°20' E 018°05'0 0.0
2017-Aug-18 00:29N 59°20' E 018°05'0 0.0
2017-Aug-17 23:59N 59°20' E 018°05'0 0.0
2017-Aug-17 23:29N 59°20' E 018°05'0 0.0
2017-Aug-17 22:53N 59°20' E 018°05'0 0.0
2017-Aug-17 22:29N 59°20' E 018°05'0 0.0
2017-Aug-17 21:59N 59°20' E 018°05'0 0.0
2017-Aug-17 21:29N 59°20' E 018°05'0 0.0
2017-Aug-17 20:53N 59°20' E 018°05'0 0.0
2017-Aug-17 20:29N 59°20' E 018°05'0 0.0
2017-Aug-17 19:53N 59°20' E 018°05'0 0.0
2017-Aug-17 19:23N 59°20' E 018°05'0 0.3
2017-Aug-17 19:00N 59°20' E 018°05'2 3.7
2017-Aug-17 18:30N 59°19' E 018°08'1 2.2
2017-Aug-17 17:59N 59°19' E 018°06'0 0.8
2017-Aug-17 17:28N 59°19' E 018°07'1 1.8
2017-Aug-17 17:00N 59°19' E 018°08'2 3.7
2017-Aug-17 16:27N 59°20' E 018°05'2 4.2
2017-Aug-17 15:58N 59°19' E 018°08'2 3.4
2017-Aug-17 15:30N 59°21' E 018°09'2 3.0
2017-Aug-17 14:58N 59°19' E 018°08'2 4.2
2017-Aug-17 14:29N 59°20' E 018°05'2 4.0
2017-Aug-17 14:00N 59°19' E 018°08'2 3.7
2017-Aug-17 13:29N 59°20' E 018°05'3 5.3
2017-Aug-17 13:00N 59°19' E 018°10'2 3.1
2017-Aug-17 12:31N 59°21' E 018°09'2 3.7
2017-Aug-17 12:00N 59°19' E 018°07'1 3.0
2017-Aug-17 11:30N 59°20' E 018°05'1 1.3
2017-Aug-17 10:59N 59°19' E 018°06'0 0.0
2017-Aug-17 10:30N 59°19' E 018°06'1 1.4
2017-Aug-17 09:59N 59°19' E 018°07'2 3.6
2017-Aug-17 09:29N 59°20' E 018°09'0 0.7
2017-Aug-17 09:00N 59°20' E 018°09'2 4.0
2017-Aug-17 08:30N 59°19' E 018°06'1 1.2
2017-Aug-17 07:54N 59°20' E 018°05'2 3.8
2017-Aug-17 07:30N 59°19' E 018°07'2 3.8
2017-Aug-17 07:00N 59°21' E 018°09'1 3.0
2017-Aug-17 06:30N 59°19' E 018°10'2 4.4
2017-Aug-17 06:00N 59°20' E 018°05'2 3.0
2017-Aug-17 05:30N 59°19' E 018°08'2 3.2
2017-Aug-17 05:00N 59°21' E 018°09'2 3.2
2017-Aug-17 04:30N 59°19' E 018°08'2 3.5
2017-Aug-17 03:58N 59°20' E 018°05'0 0.0
2017-Aug-17 03:28N 59°20' E 018°05'0 0.0
2017-Aug-17 02:58N 59°20' E 018°05'0 0.0
2017-Aug-17 02:28N 59°20' E 018°05'0 0.0
2017-Aug-17 01:58N 59°20' E 018°05'0 0.0
2017-Aug-17 01:28N 59°20' E 018°05'0 0.0
2017-Aug-17 00:58N 59°20' E 018°05'0 0.0
2017-Aug-17 00:22N 59°20' E 018°05'0 0.0
2017-Aug-16 23:58N 59°20' E 018°05'0 0.0
2017-Aug-16 23:28N 59°20' E 018°05'0 0.0
2017-Aug-16 22:52N 59°20' E 018°05'0 0.0
2017-Aug-16 22:28N 59°20' E 018°05'0 0.0
2017-Aug-16 21:58N 59°20' E 018°05'0 0.0
2017-Aug-16 21:28N 59°20' E 018°05'0 0.0
2017-Aug-16 20:52N 59°20' E 018°05'0 0.0
2017-Aug-16 20:28N 59°20' E 018°05'0 0.0
2017-Aug-16 19:58N 59°20' E 018°05'0 0.0
2017-Aug-16 19:28N 59°20' E 018°05'0 0.4
2017-Aug-16 18:55N 59°20' E 018°05'2 4.3
2017-Aug-16 18:31N 59°19' E 018°08'0 0.9
2017-Aug-16 18:01N 59°19' E 018°07'0 0.7
2017-Aug-16 17:29N 59°19' E 018°06'2 3.1
2017-Aug-16 17:00N 59°19' E 018°09'2 4.3
2017-Aug-16 16:27N 59°20' E 018°05'2 3.7
2017-Aug-16 15:59N 59°19' E 018°07'2 3.7
2017-Aug-16 15:30N 59°21' E 018°08'2 3.1
2017-Aug-16 15:00N 59°19' E 018°09'2 4.1
2017-Aug-16 14:28N 59°20' E 018°05'2 3.9
2017-Aug-16 14:00N 59°19' E 018°08'2 3.5
2017-Aug-16 13:28N 59°20' E 018°05'2 5.0
2017-Aug-16 12:59N 59°19' E 018°09'1 2.7
2017-Aug-16 12:29N 59°21' E 018°09'2 3.6
2017-Aug-16 12:00N 59°19' E 018°07'2 3.0
2017-Aug-16 11:30N 59°20' E 018°05'0 0.9
2017-Aug-16 10:59N 59°19' E 018°06'0 0.6
2017-Aug-16 10:30N 59°19' E 018°06'0 0.3
2017-Aug-16 10:00N 59°19' E 018°06'2 3.7
2017-Aug-16 09:30N 59°20' E 018°09'0 0.2
2017-Aug-16 09:01N 59°20' E 018°09'2 4.0
2017-Aug-16 08:31N 59°19' E 018°06'1 1.0
2017-Aug-16 08:00N 59°20' E 018°05'1 2.4
2017-Aug-16 07:30N 59°19' E 018°07'2 3.9
2017-Aug-16 06:58N 59°21' E 018°09'1 3.0
2017-Aug-16 06:29N 59°19' E 018°09'2 4.3
2017-Aug-16 06:00N 59°20' E 018°05'1 2.6
2017-Aug-16 05:29N 59°19' E 018°08'2 3.4
2017-Aug-16 05:00N 59°21' E 018°08'2 3.6
2017-Aug-16 04:30N 59°19' E 018°09'2 4.4
2017-Aug-16 03:59N 59°20' E 018°05'0 0.0
2017-Aug-16 03:29N 59°20' E 018°05'0 0.0
2017-Aug-16 02:59N 59°20' E 018°05'0 0.0
2017-Aug-16 02:11N 59°20' E 018°05'0 0.0
2017-Aug-16 01:53N 59°20' E 018°05'0 0.0
2017-Aug-16 01:29N 59°20' E 018°05'0 0.0
2017-Aug-16 00:59N 59°20' E 018°05'0 0.0
2017-Aug-16 00:29N 59°20' E 018°05'0 0.0
2017-Aug-15 23:59N 59°20' E 018°05'0 0.0
2017-Aug-15 23:23N 59°20' E 018°05'0 0.0
2017-Aug-15 22:59N 59°20' E 018°05'0 0.0
2017-Aug-15 22:29N 59°20' E 018°05'0 0.0
2017-Aug-15 21:59N 59°20' E 018°05'0 0.0
2017-Aug-15 21:29N 59°20' E 018°05'0 0.0
2017-Aug-15 20:59N 59°20' E 018°05'0 0.0
2017-Aug-15 20:29N 59°20' E 018°05'0 0.0
2017-Aug-15 19:59N 59°20' E 018°05'0 0.0
2017-Aug-15 19:29N 59°20' E 018°05'0 0.4
2017-Aug-15 18:59N 59°20' E 018°05'2 4.1
2017-Aug-15 18:30N 59°19' E 018°08'1 1.6
2017-Aug-15 18:00N 59°19' E 018°07'0 0.3
2017-Aug-15 17:28N 59°19' E 018°06'1 2.5
2017-Aug-15 17:00N 59°19' E 018°09'2 4.3
2017-Aug-15 16:30N 59°20' E 018°05'2 3.6
2017-Aug-15 16:00N 59°19' E 018°08'2 3.2
2017-Aug-15 15:28N 59°21' E 018°08'2 3.5
2017-Aug-15 14:59N 59°19' E 018°08'2 4.0
2017-Aug-15 14:29N 59°20' E 018°05'2 4.2
2017-Aug-15 14:00N 59°19' E 018°08'2 4.0
2017-Aug-15 13:30N 59°20' E 018°05'3 5.1
2017-Aug-15 13:00N 59°19' E 018°09'1 1.5
2017-Aug-15 12:26N 59°20' E 018°09'1 3.3
2017-Aug-15 12:00N 59°19' E 018°07'1 2.2
2017-Aug-15 11:23N 59°20' E 018°05'0 1.0
2017-Aug-15 11:00N 59°20' E 018°05'0 0.5
2017-Aug-15 10:30N 59°19' E 018°06'0 0.7
2017-Aug-15 10:00N 59°19' E 018°06'2 3.5
2017-Aug-15 09:30N 59°20' E 018°09'0 0.2
2017-Aug-15 09:00N 59°20' E 018°10'2 4.1
2017-Aug-15 08:30N 59°19' E 018°06'1 1.3
2017-Aug-15 07:54N 59°20' E 018°05'1 3.7
2017-Aug-15 07:30N 59°19' E 018°07'2 4.0
2017-Aug-15 07:00N 59°20' E 018°09'1 2.4
2017-Aug-15 06:29N 59°19' E 018°09'2 4.1
2017-Aug-15 06:00N 59°20' E 018°05'1 2.3
2017-Aug-15 05:30N 59°19' E 018°08'2 3.3
2017-Aug-15 05:00N 59°21' E 018°08'2 3.4
2017-Aug-15 04:30N 59°19' E 018°09'2 3.7
2017-Aug-15 03:54N 59°20' E 018°05'0 0.0
2017-Aug-15 03:31N 59°20' E 018°05'0 0.0
2017-Aug-15 02:54N 59°20' E 018°05'0 0.0
2017-Aug-15 02:24N 59°20' E 018°05'0 0.0
2017-Aug-15 02:01N 59°20' E 018°05'0 0.0
2017-Aug-15 01:30N 59°20' E 018°05'0 0.0
2017-Aug-15 01:01N 59°20' E 018°05'0 0.0
2017-Aug-15 00:31N 59°20' E 018°05'0 0.0
2017-Aug-15 00:00N 59°20' E 018°05'0 0.0
2017-Aug-14 23:31N 59°20' E 018°05'0 0.0
2017-Aug-14 23:01N 59°20' E 018°05'0 0.0
2017-Aug-14 22:25N 59°20' E 018°05'0 0.0
2017-Aug-14 22:00N 59°20' E 018°05'0 0.0
2017-Aug-14 21:24N 59°20' E 018°05'0 0.0
2017-Aug-14 21:01N 59°20' E 018°05'0 0.0
2017-Aug-14 20:31N 59°20' E 018°05'0 0.0
2017-Aug-14 20:01N 59°20' E 018°05'0 0.0
2017-Aug-14 19:24N 59°20' E 018°05'0 0.3
2017-Aug-14 19:00N 59°20' E 018°05'2 4.1
2017-Aug-14 18:30N 59°19' E 018°09'1 2.6
2017-Aug-14 17:59N 59°19' E 018°06'0 0.0
2017-Aug-14 17:29N 59°19' E 018°06'1 2.4
2017-Aug-14 17:00N 59°19' E 018°08'2 4.0
2017-Aug-14 16:29N 59°20' E 018°05'2 3.7
2017-Aug-14 16:00N 59°19' E 018°07'2 3.5
2017-Aug-14 15:29N 59°21' E 018°08'2 3.3
2017-Aug-14 14:59N 59°19' E 018°08'2 3.7
2017-Aug-14 14:29N 59°20' E 018°05'2 3.7
2017-Aug-14 13:59N 59°19' E 018°08'2 3.9
2017-Aug-14 13:30N 59°20' E 018°05'3 5.1
2017-Aug-14 13:00N 59°19' E 018°09'1 2.8
2017-Aug-14 12:30N 59°21' E 018°09'2 3.7
2017-Aug-14 12:00N 59°19' E 018°07'1 2.7
2017-Aug-14 11:30N 59°20' E 018°05'0 0.5
2017-Aug-14 11:00N 59°20' E 018°05'0 0.5
2017-Aug-14 10:29N 59°19' E 018°06'0 0.7
2017-Aug-14 10:01N 59°19' E 018°06'2 3.7
2017-Aug-14 09:31N 59°20' E 018°09'0 0.2
2017-Aug-14 09:00N 59°20' E 018°09'2 3.8
2017-Aug-14 08:29N 59°19' E 018°06'1 1.4
2017-Aug-14 07:59N 59°20' E 018°05'1 3.0
2017-Aug-14 07:30N 59°19' E 018°07'2 3.9
2017-Aug-14 07:00N 59°20' E 018°09'1 2.3
2017-Aug-14 06:30N 59°19' E 018°09'2 3.8
2017-Aug-14 06:00N 59°20' E 018°05'1 2.6
2017-Aug-14 05:30N 59°19' E 018°08'2 3.2
2017-Aug-14 05:00N 59°21' E 018°08'2 3.3
2017-Aug-14 04:30N 59°19' E 018°08'2 3.3
2017-Aug-14 03:55N 59°20' E 018°05'0 0.0
2017-Aug-14 03:19N 59°20' E 018°05'0 0.0
2017-Aug-14 02:55N 59°20' E 018°05'0 0.0
2017-Aug-14 02:25N 59°20' E 018°05'0 0.0
2017-Aug-14 01:55N 59°20' E 018°05'0 0.0
2017-Aug-14 01:19N 59°20' E 018°05'0 0.0
2017-Aug-14 00:49N 59°20' E 018°05'0 0.0
2017-Aug-14 00:19N 59°20' E 018°05'0 0.0
2017-Aug-13 23:55N 59°20' E 018°05'0 0.0
2017-Aug-13 23:25N 59°20' E 018°05'0 0.0
2017-Aug-13 22:55N 59°20' E 018°05'0 0.0
2017-Aug-13 22:25N 59°20' E 018°05'0 0.0
2017-Aug-13 21:55N 59°20' E 018°05'0 0.0
2017-Aug-13 21:19N 59°20' E 018°05'0 0.0
2017-Aug-13 20:55N 59°20' E 018°05'0 0.0
2017-Aug-13 20:25N 59°20' E 018°05'0 0.0
2017-Aug-13 19:55N 59°20' E 018°05'0 0.0
2017-Aug-13 19:25N 59°20' E 018°05'0 0.0
2017-Aug-13 18:55N 59°20' E 018°05'0 0.0
2017-Aug-13 18:25N 59°20' E 018°05'0 0.0
2017-Aug-13 17:55N 59°20' E 018°05'0 0.0
2017-Aug-13 17:25N 59°20' E 018°05'0 0.0
2017-Aug-13 16:55N 59°20' E 018°05'0 0.0
2017-Aug-13 16:25N 59°20' E 018°05'1 2.0
2017-Aug-13 16:00N 59°19' E 018°06'2 3.8
2017-Aug-13 15:26N 59°21' E 018°09'2 3.7
2017-Aug-13 15:00N 59°19' E 018°08'2 3.5
2017-Aug-13 14:26N 59°20' E 018°05'2 3.7
2017-Aug-13 14:00N 59°19' E 018°07'2 3.1
2017-Aug-13 13:27N 59°21' E 018°09'2 3.4
2017-Aug-13 12:59N 59°19' E 018°08'2 4.1
2017-Aug-13 12:29N 59°20' E 018°05'2 4.0
2017-Aug-13 11:59N 59°19' E 018°08'2 4.2
2017-Aug-13 11:30N 59°20' E 018°05'0 0.0
2017-Aug-13 10:55N 59°20' E 018°05'1 3.0
2017-Aug-13 10:30N 59°19' E 018°07'2 4.0
2017-Aug-13 10:00N 59°21' E 018°09'2 3.6
2017-Aug-13 09:30N 59°19' E 018°07'1 2.9
2017-Aug-13 09:00N 59°20' E 018°05'2 4.3
2017-Aug-13 08:30N 59°19' E 018°09'2 3.5
2017-Aug-13 08:00N 59°19' E 018°06'1 1.1
2017-Aug-13 07:27N 59°20' E 018°05'0 0.0
2017-Aug-13 06:57N 59°20' E 018°05'0 0.0
2017-Aug-13 06:27N 59°20' E 018°05'0 0.0
2017-Aug-13 05:45N 59°20' E 018°05'0 0.0
2017-Aug-13 05:27N 59°20' E 018°05'0 0.0
2017-Aug-13 04:57N 59°20' E 018°05'0 0.0
2017-Aug-13 04:27N 59°20' E 018°05'0 0.0
2017-Aug-13 03:57N 59°20' E 018°05'0 0.0
2017-Aug-13 03:21N 59°20' E 018°05'0 0.0
2017-Aug-13 02:57N 59°20' E 018°05'0 0.0
2017-Aug-13 02:27N 59°20' E 018°05'0 0.0
2017-Aug-13 01:57N 59°20' E 018°05'0 0.0
2017-Aug-13 01:27N 59°20' E 018°05'0 0.0
2017-Aug-13 00:57N 59°20' E 018°05'0 0.0
2017-Aug-13 00:27N 59°20' E 018°05'0 0.0
2017-Aug-12 23:57N 59°20' E 018°05'0 0.0
2017-Aug-12 23:27N 59°20' E 018°05'0 0.0
2017-Aug-12 22:57N 59°20' E 018°05'0 0.0
2017-Aug-12 22:21N 59°20' E 018°05'0 0.0
2017-Aug-12 21:57N 59°20' E 018°05'0 0.0
2017-Aug-12 21:27N 59°20' E 018°05'0 0.0
2017-Aug-12 20:57N 59°20' E 018°05'0 0.0
2017-Aug-12 20:27N 59°20' E 018°05'0 0.0
2017-Aug-12 19:57N 59°20' E 018°05'0 0.0
2017-Aug-12 19:21N 59°20' E 018°05'0 0.0
2017-Aug-12 18:57N 59°20' E 018°05'0 0.0
2017-Aug-12 18:21N 59°20' E 018°05'0 0.0
2017-Aug-12 17:57N 59°20' E 018°05'0 0.0
2017-Aug-12 17:27N 59°20' E 018°05'0 0.0
2017-Aug-12 16:57N 59°20' E 018°05'0 0.0
2017-Aug-12 16:27N 59°20' E 018°05'1 2.5
2017-Aug-12 16:00N 59°19' E 018°07'2 3.6
2017-Aug-12 15:27N 59°21' E 018°09'2 3.4
2017-Aug-12 14:59N 59°19' E 018°08'2 3.5
2017-Aug-12 14:26N 59°20' E 018°05'2 3.5
2017-Aug-12 14:00N 59°19' E 018°07'2 3.6
2017-Aug-12 13:30N 59°21' E 018°09'2 3.0
2017-Aug-12 12:59N 59°19' E 018°08'2 4.2
2017-Aug-12 12:30N 59°20' E 018°05'2 3.9
2017-Aug-12 11:58N 59°19' E 018°08'2 3.8
2017-Aug-12 11:27N 59°20' E 018°05'0 0.0
2017-Aug-12 11:00N 59°20' E 018°05'1 2.3
2017-Aug-12 10:29N 59°19' E 018°06'2 4.0
2017-Aug-12 10:00N 59°21' E 018°09'2 3.6
2017-Aug-12 09:30N 59°19' E 018°07'1 2.5
2017-Aug-12 08:58N 59°20' E 018°05'2 4.6
2017-Aug-12 08:30N 59°19' E 018°09'2 3.6
2017-Aug-12 07:59N 59°19' E 018°06'1 0.9
2017-Aug-12 07:25N 59°20' E 018°05'0 0.0
2017-Aug-12 06:37N 59°20' E 018°05'0 0.0
2017-Aug-12 06:07N 59°20' E 018°05'0 0.0
2017-Aug-12 05:49N 59°20' E 018°05'0 0.0
2017-Aug-12 05:25N 59°20' E 018°05'0 0.0
2017-Aug-12 04:49N 59°20' E 018°05'0 0.0
2017-Aug-12 04:19N 59°20' E 018°05'0 0.0
2017-Aug-12 03:55N 59°20' E 018°05'0 0.0
2017-Aug-12 03:25N 59°20' E 018°05'0 0.0
2017-Aug-12 02:55N 59°20' E 018°05'0 0.0
2017-Aug-12 02:25N 59°20' E 018°05'0 0.0
2017-Aug-12 01:55N 59°20' E 018°05'0 0.0
2017-Aug-12 01:19N 59°20' E 018°05'0 0.0
2017-Aug-12 00:49N 59°20' E 018°05'0 0.0
2017-Aug-12 00:25N 59°20' E 018°05'0 0.0
2017-Aug-11 23:49N 59°20' E 018°05'0 0.0
2017-Aug-11 23:19N 59°20' E 018°05'0 0.0
2017-Aug-11 22:55N 59°20' E 018°05'0 0.0
2017-Aug-11 22:19N 59°20' E 018°05'0 0.0
2017-Aug-11 21:49N 59°20' E 018°05'0 0.0
2017-Aug-11 21:25N 59°20' E 018°05'0 0.0
2017-Aug-11 20:55N 59°20' E 018°05'0 0.0
2017-Aug-11 20:19N 59°20' E 018°05'0 0.0
2017-Aug-11 19:49N 59°20' E 018°05'0 0.0
2017-Aug-11 19:19N 59°20' E 018°05'0 0.5
2017-Aug-11 18:59N 59°20' E 018°05'2 4.8
2017-Aug-11 18:30N 59°19' E 018°09'2 3.6
2017-Aug-11 18:00N 59°19' E 018°06'0 0.4
2017-Aug-11 17:30N 59°19' E 018°06'1 2.2
2017-Aug-11 17:00N 59°19' E 018°08'2 4.1
2017-Aug-11 16:29N 59°20' E 018°05'2 4.4
2017-Aug-11 15:58N 59°19' E 018°09'1 3.0
2017-Aug-11 15:29N 59°21' E 018°09'2 3.7
2017-Aug-11 14:59N 59°19' E 018°07'0 0.1
2017-Aug-11 14:00N 59°19' E 018°07'1 1.7
2017-Aug-11 13:30N 59°19' E 018°06'2 4.1
2017-Aug-11 13:00N 59°19' E 018°10'1 2.3
2017-Aug-11 12:31N 59°20' E 018°09'2 3.2
2017-Aug-11 12:00N 59°19' E 018°07'1 2.7
2017-Aug-11 11:29N 59°20' E 018°05'0 0.8
2017-Aug-11 11:00N 59°20' E 018°05'0 0.3
2017-Aug-11 10:29N 59°19' E 018°06'1 1.2
2017-Aug-11 10:00N 59°19' E 018°06'2 3.7
2017-Aug-11 09:29N 59°20' E 018°09'1 1.4
2017-Aug-11 08:59N 59°20' E 018°09'2 4.1
2017-Aug-11 08:30N 59°19' E 018°06'1 1.2
2017-Aug-11 07:56N 59°20' E 018°05'1 3.2
2017-Aug-11 07:29N 59°19' E 018°07'2 4.2
2017-Aug-11 06:59N 59°21' E 018°09'1 2.7
2017-Aug-11 06:29N 59°19' E 018°09'2 4.2
2017-Aug-11 06:00N 59°20' E 018°05'2 3.1
2017-Aug-11 05:29N 59°19' E 018°08'2 3.6
2017-Aug-11 05:00N 59°21' E 018°08'2 3.4
2017-Aug-11 04:30N 59°19' E 018°09'2 3.9
2017-Aug-11 03:57N 59°20' E 018°05'0 0.0
2017-Aug-11 03:27N 59°20' E 018°05'0 0.0
2017-Aug-11 02:57N 59°20' E 018°05'0 0.0
2017-Aug-11 02:28N 59°20' E 018°05'0 0.0
2017-Aug-11 01:57N 59°20' E 018°05'0 0.0
2017-Aug-11 01:27N 59°20' E 018°05'0 0.0
2017-Aug-11 00:57N 59°20' E 018°05'0 0.0
2017-Aug-11 00:27N 59°20' E 018°05'0 0.0
2017-Aug-10 23:57N 59°20' E 018°05'0 0.0
2017-Aug-10 23:27N 59°20' E 018°05'0 0.0
2017-Aug-10 22:58N 59°20' E 018°05'0 0.0
2017-Aug-10 22:27N 59°20' E 018°05'0 0.0
2017-Aug-10 21:58N 59°20' E 018°05'0 0.0
2017-Aug-10 21:27N 59°20' E 018°05'0 0.0
2017-Aug-10 20:57N 59°20' E 018°05'0 0.0
2017-Aug-10 20:28N 59°20' E 018°05'0 0.0
2017-Aug-10 19:58N 59°20' E 018°05'0 0.0
2017-Aug-10 19:28N 59°20' E 018°05'0 0.1
2017-Aug-10 19:00N 59°20' E 018°05'2 3.7
2017-Aug-10 18:31N 59°19' E 018°08'1 2.4
2017-Aug-10 18:01N 59°19' E 018°06'0 0.8
2017-Aug-10 17:30N 59°19' E 018°07'1 1.6
2017-Aug-10 17:00N 59°19' E 018°08'2 3.9
2017-Aug-10 16:29N 59°20' E 018°05'2 3.5
2017-Aug-10 16:00N 59°19' E 018°07'2 3.5
2017-Aug-10 15:30N 59°21' E 018°08'2 3.3
2017-Aug-10 15:00N 59°19' E 018°08'2 3.9
2017-Aug-10 14:29N 59°20' E 018°05'2 3.4
2017-Aug-10 13:58N 59°19' E 018°07'2 3.8
2017-Aug-10 13:30N 59°20' E 018°05'3 5.0
2017-Aug-10 13:00N 59°19' E 018°09'1 2.8
2017-Aug-10 12:30N 59°21' E 018°09'2 3.5
2017-Aug-10 12:00N 59°19' E 018°07'2 3.3
2017-Aug-10 11:30N 59°20' E 018°05'1 1.2
2017-Aug-10 11:00N 59°20' E 018°05'0 0.4
2017-Aug-10 10:30N 59°19' E 018°06'0 0.9
2017-Aug-10 10:00N 59°19' E 018°06'2 3.6
2017-Aug-10 09:30N 59°20' E 018°09'0 0.2
2017-Aug-10 09:00N 59°20' E 018°09'2 3.8
2017-Aug-10 08:29N 59°19' E 018°06'1 1.4
2017-Aug-10 07:58N 59°20' E 018°05'1 3.0
2017-Aug-10 07:30N 59°19' E 018°07'2 4.0
2017-Aug-10 07:00N 59°21' E 018°09'1 2.7
2017-Aug-10 06:31N 59°19' E 018°09'2 4.2
2017-Aug-10 05:59N 59°20' E 018°05'2 3.5
2017-Aug-10 05:29N 59°19' E 018°08'2 3.2
2017-Aug-10 04:58N 59°21' E 018°08'2 3.4
2017-Aug-10 04:29N 59°19' E 018°08'2 4.2
2017-Aug-10 04:00N 59°20' E 018°05'0 0.3
2017-Aug-10 03:27N 59°20' E 018°05'0 0.0
2017-Aug-10 02:57N 59°20' E 018°05'0 0.0
2017-Aug-10 02:27N 59°20' E 018°05'0 0.0
2017-Aug-10 01:57N 59°20' E 018°05'0 0.0
2017-Aug-10 01:27N 59°20' E 018°05'0 0.0
2017-Aug-10 00:57N 59°20' E 018°05'0 0.0
2017-Aug-10 00:27N 59°20' E 018°05'0 0.0
2017-Aug-09 23:57N 59°20' E 018°05'0 0.0
2017-Aug-09 23:27N 59°20' E 018°05'0 0.0
2017-Aug-09 22:57N 59°20' E 018°05'0 0.0
2017-Aug-09 22:27N 59°20' E 018°05'0 0.0
2017-Aug-09 21:57N 59°20' E 018°05'0 0.0
2017-Aug-09 21:27N 59°20' E 018°05'0 0.0
2017-Aug-09 20:57N 59°20' E 018°05'0 0.0
2017-Aug-09 20:27N 59°20' E 018°05'0 0.0
2017-Aug-09 19:45N 59°20' E 018°05'0 0.0
2017-Aug-09 19:21N 59°20' E 018°05'0 0.1
2017-Aug-09 19:00N 59°20' E 018°05'2 3.6
2017-Aug-09 18:30N 59°19' E 018°08'1 1.9
2017-Aug-09 17:58N 59°19' E 018°06'0 0.5
2017-Aug-09 17:30N 59°19' E 018°06'1 2.3
2017-Aug-09 16:59N 59°19' E 018°08'2 4.1
2017-Aug-09 16:29N 59°20' E 018°05'2 3.6
2017-Aug-09 16:00N 59°19' E 018°07'2 3.5
2017-Aug-09 15:30N 59°21' E 018°09'2 3.2
2017-Aug-09 15:00N 59°19' E 018°08'2 3.8
2017-Aug-09 14:29N 59°20' E 018°05'2 3.9
2017-Aug-09 14:00N 59°19' E 018°08'2 3.4
2017-Aug-09 13:29N 59°20' E 018°05'2 4.8
2017-Aug-09 12:59N 59°19' E 018°10'1 2.7
2017-Aug-09 12:30N 59°20' E 018°09'2 3.6
2017-Aug-09 12:00N 59°19' E 018°07'1 2.0
2017-Aug-09 11:20N 59°20' E 018°05'0 1.3
2017-Aug-09 10:59N 59°19' E 018°06'0 0.1
2017-Aug-09 10:30N 59°19' E 018°06'1 1.4
2017-Aug-09 09:59N 59°19' E 018°07'2 3.5
2017-Aug-09 09:30N 59°20' E 018°09'0 0.1
2017-Aug-09 09:00N 59°20' E 018°09'2 3.8
2017-Aug-09 08:29N 59°19' E 018°06'1 1.3
2017-Aug-09 07:57N 59°20' E 018°05'1 3.1
2017-Aug-09 07:30N 59°19' E 018°07'2 4.2
2017-Aug-09 07:00N 59°21' E 018°09'1 2.8
2017-Aug-09 06:30N 59°19' E 018°09'2 4.6
2017-Aug-09 06:00N 59°20' E 018°05'1 2.8
2017-Aug-09 05:30N 59°19' E 018°08'2 3.3
2017-Aug-09 05:00N 59°21' E 018°08'2 3.5
2017-Aug-09 04:30N 59°19' E 018°09'2 4.2
2017-Aug-09 03:56N 59°20' E 018°05'0 0.0
2017-Aug-09 03:26N 59°20' E 018°05'0 0.0
2017-Aug-09 02:57N 59°20' E 018°05'0 0.0
2017-Aug-09 02:26N 59°20' E 018°05'0 0.0
2017-Aug-09 01:57N 59°20' E 018°05'0 0.0
2017-Aug-09 01:29N 59°20' E 018°05'0 0.0
2017-Aug-09 00:58N 59°20' E 018°05'0 0.0
2017-Aug-09 00:22N 59°20' E 018°05'0 0.0
2017-Aug-08 23:59N 59°20' E 018°05'0 0.0
2017-Aug-08 23:29N 59°20' E 018°05'0 0.0
2017-Aug-08 22:59N 59°20' E 018°05'0 0.0
2017-Aug-08 22:28N 59°20' E 018°05'0 0.0
2017-Aug-08 21:58N 59°20' E 018°05'0 0.0
2017-Aug-08 21:28N 59°20' E 018°05'0 0.0
2017-Aug-08 20:58N 59°20' E 018°05'0 0.0
2017-Aug-08 20:28N 59°20' E 018°05'0 0.0
2017-Aug-08 19:59N 59°20' E 018°05'  

Dump ship's entire track history